EEST,Max TemperatureF,Mean TemperatureF,Min TemperatureF,Max Dew PointF,MeanDew PointF,Min DewpointF,Max Humidity, Mean Humidity, Min Humidity, Max Sea Level PressureIn, Mean Sea Level PressureIn, Min Sea Level PressureIn, Max VisibilityMiles, Mean VisibilityMiles, Min VisibilityMiles, Max Wind SpeedMPH, Mean Wind SpeedMPH, Max Gust SpeedMPH,PrecipitationIn, CloudCover, Events, WindDirDegrees
2012-9-1,86,72,59,52,47,43,72,46,22,30.15,30.10,30.06,6,6,6,9,4,,0.00,1,,97
2012-9-2,84,70,57,48,46,39,67,47,26,30.21,30.18,30.12,6,6,6,7,4,,0.00,1,,89
2012-9-3,84,70,57,52,46,39,67,48,20,30.18,30.12,30.04,6,6,6,7,5,,0.00,1,,3
2012-9-4,87,72,57,54,49,43,77,49,21,30.09,30.03,29.95,6,6,6,8,4,,0.00,1,,42
2012-9-5,87,74,60,52,49,43,68,48,21,30.04,30.00,29.92,6,6,6,9,4,,0.00,1,,104
2012-9-6,89,74,60,61,51,39,83,52,18,30.04,29.97,29.89,6,6,6,14,5,,0.00,1,Rain,346
2012-9-7,82,72,62,57,51,48,73,52,30,30.12,30.07,30.04,6,6,6,14,9,,0.00,1,,345
2012-9-8,82,73,64,50,44,34,52,39,24,30.15,30.09,30.04,,,,12,8,,0.00,,,333
2012-9-9,86,73,60,41,35,30,40,27,15,30.12,30.09,30.04,,,,10,7,,0.00,,,332
2012-9-10,78,69,60,48,44,39,55,42,30,30.21,30.16,30.12,6,6,6,13,6,,0.00,4,,39
2012-9-11,78,66,55,55,47,45,94,55,30,30.18,30.11,30.04,6,6,6,13,5,,0.00,4,Rain,39
2012-9-12,78,66,53,57,53,45,94,73,30,30.06,29.98,29.86,6,6,6,6,3,,0.00,4,,96
2012-9-13,82,68,55,57,53,46,94,65,30,29.89,29.83,29.77,6,6,6,13,4,,0.00,3,,91
2012-9-14,69,64,59,61,57,54,94,87,60,29.98,29.89,29.77,6,6,6,13,5,,0.00,6,Rain,154
2012-9-15,64,60,57,61,58,54,100,88,73,29.92,29.89,29.86,,,,12,4,,0.00,,Rain,149
2012-9-16,64,60,55,57,55,54,94,88,73,29.95,29.91,29.86,6,6,6,12,5,,0.00,6,Rain,340
2012-9-17,68,62,57,59,55,54,88,82,64,30.04,29.99,29.95,6,6,6,12,8,,0.00,6,Rain,333
2012-9-18,75,68,60,59,56,54,88,74,47,30.04,30.02,29.98,6,6,6,6,3,,0.00,5,Rain,3
2012-9-19,77,66,55,59,56,52,94,75,44,30.01,29.98,29.92,6,6,6,8,3,,0.00,2,,120
2012-9-20,75,66,57,59,55,48,94,79,44,30.01,29.96,29.92,6,6,6,13,4,,0.00,3,Rain,332
2012-9-21,66,58,50,46,38,32,76,52,28,30.12,30.08,30.01,6,6,6,15,11,23,0.00,1,,330
2012-9-22,75,60,46,39,35,27,66,43,18,30.12,30.09,30.04,,,,14,7,,0.00,,,320
2012-9-23,78,64,50,50,43,37,71,52,23,30.18,30.13,30.09,,,,6,4,,0.00,,,9
2012-9-24,86,70,53,54,48,46,77,56,27,30.09,30.04,29.95,6,6,6,6,4,,0.00,1,,42
2012-9-25,87,73,59,54,48,43,72,47,22,30.01,29.96,29.95,6,6,6,8,4,,0.00,3,,328
2012-9-26,84,74,64,50,48,43,59,43,25,30.12,30.05,30.01,6,6,6,13,5,20,0.00,2,,303
2012-9-27,86,72,59,54,50,46,72,50,27,30.15,30.12,30.09,6,6,6,6,3,,0.00,1,,340
2012-9-28,87,74,60,54,48,45,63,44,23,30.18,30.15,30.12,6,6,6,7,5,,0.00,1,,347
2012-9-29,87,74,60,54,47,43,59,41,21,30.21,30.18,30.12,,,,7,5,,0.00,,,348
2012-9-30,87,73,59,54,49,45,67,49,22,30.21,30.17,30.12,6,6,6,7,5,,0.00,3,,341